Time;durP1;ratioP1;P1;durP2;ratioP2;P2;SDS_P1;SDS_P2;PMS_P1;PMS_P2;Temp;Humidity;BMP_temperature;BMP_pressure;BME280_temperature;BME280_humidity;BME280_pressure;Samples;Min_cycle;Max_cycle;Signal;HPM_P1;HPM_P2
2022/08/11 00:01:24;;;;;;;8.98;3.92;;;;;;;17.95;68.50;102040.78;5074107;28;20024;-73
2022/08/11 00:03:53;;;;;;;11.45;3.85;;;;;;;17.94;68.73;102037.22;5074460;28;20499;-73
2022/08/11 00:06:34;;;;;;;11.00;4.38;;;;;;;17.95;67.88;102036.22;5074355;28;20021;-73
2022/08/11 00:09:02;;;;;;;13.32;4.65;;;;;;;17.96;67.36;102037.09;5074286;28;20480;-73
2022/08/11 00:11:37;;;;;;;14.52;4.88;;;;;;;17.96;68.36;102042.53;5072889;28;20028;-73
2022/08/11 00:14:11;;;;;;;12.75;4.90;;;;;;;17.94;68.03;102036.38;5074143;28;20473;-73
2022/08/11 00:16:38;;;;;;;14.60;4.57;;;;;;;17.92;68.47;102032.91;5072837;28;20477;-73
2022/08/11 00:19:03;;;;;;;11.32;4.43;;;;;;;17.91;67.95;102025.75;5072836;28;20119;-73
2022/08/11 00:21:30;;;;;;;13.10;4.60;;;;;;;17.89;69.47;102033.13;5074085;28;20158;-73
2022/08/11 00:24:04;;;;;;;11.60;4.45;;;;;;;17.89;66.43;102034.00;5072699;28;20020;-73
2022/08/11 00:26:31;;;;;;;12.10;4.30;;;;;;;17.88;67.57;102039.56;5073914;28;20420;-73
2022/08/11 00:29:07;;;;;;;12.02;4.03;;;;;;;17.89;67.59;102034.00;5073953;28;20035;-73
2022/08/11 00:31:34;;;;;;;13.95;4.95;;;;;;;17.87;68.06;102032.41;5073595;28;20110;-73
2022/08/11 00:34:01;;;;;;;13.43;4.75;;;;;;;17.85;68.79;102045.25;5073839;28;20025;-73
2022/08/11 00:36:37;;;;;;;10.30;4.28;;;;;;;17.82;68.57;102040.97;5073851;28;20024;-73
2022/08/11 00:39:05;;;;;;;13.55;4.97;;;;;;;17.78;68.61;102026.75;5072493;28;20024;-73
2022/08/11 00:41:43;;;;;;;12.00;4.57;;;;;;;17.75;67.87;102029.75;5072313;28;20024;-73
2022/08/11 00:44:19;;;;;;;15.52;5.40;;;;;;;17.71;68.32;102025.53;5071271;28;20025;-73
2022/08/11 00:46:57;;;;;;;12.35;4.93;;;;;;;17.68;69.10;102033.97;5072086;28;20025;-73
2022/08/11 00:49:31;;;;;;;13.95;5.18;;;;;;;17.64;69.66;102027.06;5072225;28;20202;-73
2022/08/11 00:52:16;;;;;;;12.88;4.72;;;;;;;17.63;67.91;102026.22;5072193;28;20028;-73
2022/08/11 00:54:56;;;;;;;17.50;5.38;;;;;;;17.60;68.94;102025.59;5071927;28;20119;-73
2022/08/11 00:57:58;;;;;;;13.07;4.95;;;;;;;17.61;67.51;102030.03;5073314;28;20133;-73
2022/08/11 01:00:30;;;;;;;14.88;4.90;;;;;;;17.58;69.46;102030.31;5073467;28;20082;-72
2022/08/11 01:03:16;;;;;;;17.55;5.15;;;;;;;17.54;68.50;102028.84;5075482;28;20070;-72
2022/08/11 01:05:44;;;;;;;13.95;4.85;;;;;;;17.53;68.30;102030.69;5075835;28;20031;-72
2022/08/11 01:08:10;;;;;;;14.52;5.03;;;;;;;17.50;68.37;102024.63;5075387;28;20025;-72
2022/08/11 01:11:18;;;;;;;14.02;5.07;;;;;;;17.51;68.72;102029.09;5075066;28;20024;-72
2022/08/11 01:14:16;;;;;;;14.32;5.05;;;;;;;17.46;68.34;102022.19;5074378;28;20028;-72
2022/08/11 01:17:08;;;;;;;16.45;4.95;;;;;;;17.45;68.47;102025.03;5075207;28;20040;-72
2022/08/11 01:19:54;;;;;;;13.57;4.80;;;;;;;17.39;67.21;102018.25;5075182;28;20031;-72
2022/08/11 01:22:33;;;;;;;16.33;5.28;;;;;;;17.38;67.47;102030.13;5075645;28;20054;-72
2022/08/11 01:25:13;;;;;;;;;;;;;;;17.42;67.16;102028.00;5075707;28;20058;-72
2022/08/11 01:28:02;;;;;;;14.73;4.88;;;;;;;17.35;68.30;102033.13;5075408;28;20360;-72
2022/08/11 01:30:48;;;;;;;13.07;4.95;;;;;;;17.30;66.92;102033.47;5074539;28;20067;-72
2022/08/11 01:33:32;;;;;;;14.20;5.43;;;;;;;17.27;69.24;102033.72;5075096;28;20040;-72
2022/08/11 01:36:15;;;;;;;15.98;5.90;;;;;;;17.26;68.24;102036.56;5074837;28;20024;-72
2022/08/11 01:39:16;;;;;;;14.10;5.07;;;;;;;17.25;68.75;102043.03;5075119;28;20571;-72
2022/08/11 01:45:36;;;;;;;13.13;5.10;;;;;;;17.18;68.96;102041.81;5074515;28;20036;-71
2022/08/11 01:48:14;;;;;;;18.20;5.45;;;;;;;17.15;68.17;102039.34;5074634;28;20038;-71
2022/08/11 01:50:57;;;;;;;15.02;5.35;;;;;;;17.15;68.92;102039.34;5074777;28;20091;-71
2022/08/11 01:53:25;;;;;;;15.07;5.22;;;;;;;17.14;68.28;102032.16;5074855;28;20031;-71
2022/08/11 01:56:14;;;;;;;16.15;5.68;;;;;;;17.11;68.52;102053.16;5072827;28;20029;-71
2022/08/11 01:58:45;;;;;;;15.48;5.28;;;;;;;17.10;70.48;102034.25;5074194;28;20029;-71
2022/08/11 02:01:29;;;;;;;14.02;5.22;;;;;;;17.07;69.25;102042.66;5072986;28;20043;-71
2022/08/11 02:04:21;;;;;;;16.45;5.78;;;;;;;17.07;68.94;102040.84;5072858;28;20021;-71
2022/08/11 02:07:05;;;;;;;15.45;5.72;;;;;;;17.04;70.08;102042.91;5074532;28;20496;-71
2022/08/11 02:09:55;;;;;;;16.45;5.65;;;;;;;17.02;68.75;102043.06;5074480;28;20024;-72
2022/08/11 02:12:33;;;;;;;14.80;5.43;;;;;;;17.00;69.18;102047.75;5074252;28;20031;-72
2022/08/11 02:15:22;;;;;;;16.48;5.70;;;;;;;16.96;68.99;102045.41;5073820;28;20540;-72
2022/08/11 02:18:09;;;;;;;18.10;5.90;;;;;;;16.95;68.55;102049.97;5074347;28;20028;-72
2022/08/11 02:23:42;;;;;;;17.95;6.38;;;;;;;16.84;69.06;102042.66;5074812;28;20035;-72
2022/08/11 02:26:32;;;;;;;15.93;6.05;;;;;;;16.85;68.39;102043.53;5072933;28;20078;-72
2022/08/11 02:29:19;;;;;;;16.50;6.25;;;;;;;16.82;68.43;102046.50;5073977;28;20098;-72
2022/08/11 02:34:58;;;;;;;15.93;5.50;;;;;;;16.75;68.71;102033.41;5073897;28;20150;-72
2022/08/11 02:37:33;;;;;;;14.50;5.70;;;;;;;16.69;69.35;102031.22;5073953;28;20031;-72
2022/08/11 02:40:04;;;;;;;19.35;6.18;;;;;;;16.68;69.36;102025.91;5073963;28;20583;-72
2022/08/11 02:42:41;;;;;;;14.05;5.65;;;;;;;16.65;69.40;102027.00;5073768;28;20029;-71
2022/08/11 02:45:30;;;;;;;17.40;6.70;;;;;;;16.62;69.20;102026.38;5073943;28;20060;-71
2022/08/11 02:51:08;;;;;;;15.00;5.65;;;;;;;16.58;69.36;102023.06;5073834;28;19955;-71
2022/08/11 02:53:48;;;;;;;17.60;7.03;;;;;;;16.54;69.64;102025.13;5074147;28;20024;-71
2022/08/11 02:56:45;;;;;;;17.30;5.68;;;;;;;16.53;69.65;102028.84;5073559;28;20037;-71
2022/08/11 02:59:50;;;;;;;16.55;5.93;;;;;;;16.49;70.62;102027.38;5073566;28;20032;-71
2022/08/11 03:02:30;;;;;;;17.25;6.13;;;;;;;16.45;69.27;102031.31;5073442;28;20103;-71
2022/08/11 03:05:10;;;;;;;19.75;6.55;;;;;;;16.42;69.43;102021.56;5073599;28;20552;-71
2022/08/11 03:07:39;;;;;;;17.60;6.57;;;;;;;16.39;70.49;102027.22;5075883;28;20530;-71
2022/08/11 03:10:10;;;;;;;17.92;6.65;;;;;;;16.37;71.10;102023.78;5075582;28;20020;-72
2022/08/11 03:18:36;;;;;;;18.58;7.07;;;;;;;16.32;70.92;102025.97;5077750;28;20557;-72
2022/08/11 03:21:15;;;;;;;16.88;6.68;;;;;;;16.30;69.75;102021.69;5077310;28;20125;-72
2022/08/11 03:23:57;;;;;;;25.52;7.10;;;;;;;16.27;70.80;102025.50;5076116;28;20028;-71
2022/08/11 03:26:37;;;;;;;17.35;6.75;;;;;;;16.26;70.23;102023.75;5077033;28;20111;-71
2022/08/11 03:29:22;;;;;;;17.05;6.60;;;;;;;16.23;71.02;102016.72;5075723;28;20523;-71
2022/08/11 03:32:00;;;;;;;18.42;6.70;;;;;;;16.20;70.63;102029.69;5064754;28;20048;-71
2022/08/11 03:34:28;;;;;;;16.02;5.90;;;;;;;16.17;71.16;102032.63;5077667;28;20021;-71
2022/08/11 03:37:47;;;;;;;17.77;7.00;;;;;;;16.13;70.97;102023.84;5077307;28;20414;-71
2022/08/11 03:43:25;;;;;;;19.58;5.82;;;;;;;16.06;70.97;102031.63;5077137;28;20028;-71
2022/08/11 03:46:13;;;;;;;18.80;6.63;;;;;;;16.06;70.67;102028.91;5077329;28;20024;-71
2022/08/11 03:48:56;;;;;;;19.52;7.43;;;;;;;16.06;71.34;102020.78;5076964;28;20126;-71
2022/08/11 03:51:26;;;;;;;19.23;6.60;;;;;;;16.01;71.36;102025.69;5075518;28;20021;-71
2022/08/11 03:54:14;;;;;;;17.13;6.78;;;;;;;16.01;70.95;102028.38;5077211;28;20647;-71
2022/08/11 03:56:59;;;;;;;18.15;6.97;;;;;;;16.02;71.33;102024.72;5076608;28;20031;-71
2022/08/11 03:59:45;;;;;;;17.35;6.47;;;;;;;16.02;71.12;102026.56;5075281;28;20024;-71
2022/08/11 04:02:33;;;;;;;17.80;7.30;;;;;;;16.01;70.89;102024.81;5075674;28;20476;-71
2022/08/11 04:05:30;;;;;;;16.02;6.60;;;;;;;16.00;70.99;102023.97;5076417;28;20027;-71
2022/08/11 04:08:35;;;;;;;16.80;6.40;;;;;;;15.97;71.13;102015.19;5075758;28;20024;-71
2022/08/11 04:11:15;;;;;;;18.83;6.78;;;;;;;15.91;71.15;102019.25;5075637;28;20514;-72
2022/08/11 04:17:37;;;;;;;18.00;6.78;;;;;;;15.89;71.19;102018.50;5076934;28;20127;-72
2022/08/11 04:20:12;;;;;;;17.98;7.07;;;;;;;15.86;71.81;102011.47;5033879;28;20164;-72
2022/08/11 04:22:48;;;;;;;17.08;7.25;;;;;;;15.86;71.88;102013.31;5034514;28;20032;-72
2022/08/11 04:25:22;;;;;;;16.67;6.93;;;;;;;15.83;71.99;102013.56;5034304;28;20528;-72
2022/08/11 04:28:10;;;;;;;20.52;7.60;;;;;;;15.82;71.95;102012.69;5021853;28;20035;-72
2022/08/11 04:31:16;;;;;;;22.00;7.53;;;;;;;15.83;71.53;102019.00;5033442;28;20053;-72
2022/08/11 04:34:20;;;;;;;18.88;7.38;;;;;;;15.83;71.60;102021.69;5025917;28;20547;-72
2022/08/11 04:40:40;;;;;;;19.00;7.35;;;;;;;15.77;71.79;102013.97;5033770;28;20064;-72
2022/08/11 04:43:24;;;;;;;17.05;7.35;;;;;;;15.73;72.69;102016.94;5017236;28;20037;-72
2022/08/11 04:46:11;;;;;;;18.15;8.10;;;;;;;15.71;72.36;102021.63;5017356;28;20022;-72
2022/08/11 05:01:58;;;;;;;18.40;7.50;;;;;;;15.75;72.92;102021.38;5075740;28;20043;-72
2022/08/11 05:07:54;;;;;;;19.98;8.02;;;;;;;15.77;73.54;102020.28;5075816;28;20116;-72
2022/08/11 05:10:58;;;;;;;19.27;8.15;;;;;;;15.83;74.13;102025.25;5075387;28;20078;-72
2022/08/11 05:36:34;;;;;;;20.50;9.05;;;;;;;16.17;73.80;102027.22;5074867;28;20507;-72
2022/08/11 05:58:32;;;;;;;21.50;9.85;;;;;;;16.66;74.16;102039.59;5074675;28;20039;-71
2022/08/11 06:00:58;;;;;;;23.08;10.65;;;;;;;16.71;72.39;102037.38;5074747;28;20029;-71
2022/08/11 06:03:28;;;;;;;19.70;9.00;;;;;;;16.77;72.51;102036.00;5074310;28;20544;-71
2022/08/11 06:05:56;;;;;;;20.75;10.15;;;;;;;16.83;73.29;102040.94;5073113;28;20433;-71
2022/08/11 06:08:31;;;;;;;21.13;10.18;;;;;;;16.88;71.91;102038.75;5074460;28;20093;-71
2022/08/11 06:11:02;;;;;;;23.50;9.73;;;;;;;16.94;70.48;102042.81;5073136;28;20412;-72
2022/08/11 06:13:29;;;;;;;20.77;10.52;;;;;;;17.02;69.59;102043.06;5073607;28;20027;-72
2022/08/11 06:15:56;;;;;;;19.10;9.13;;;;;;;17.09;71.31;102035.28;5073415;28;20020;-72
2022/08/11 06:18:22;;;;;;;25.58;10.07;;;;;;;17.15;73.36;102040.19;5074518;28;20070;-72
2022/08/11 06:20:52;;;;;;;20.00;9.52;;;;;;;17.21;70.89;102044.25;5073292;28;20020;-72
2022/08/11 06:23:22;;;;;;;25.83;9.93;;;;;;;17.28;70.99;102031.91;5073429;28;20029;-72
2022/08/11 06:25:50;;;;;;;19.27;8.23;;;;;;;17.36;68.53;102032.09;5073398;28;20385;-72
2022/08/11 06:28:21;;;;;;;19.58;9.07;;;;;;;17.43;69.18;102029.75;5074719;28;20025;-72
2022/08/11 06:30:47;;;;;;;21.45;9.40;;;;;;;17.52;69.07;102036.28;5072886;28;20051;-72
2022/08/11 06:33:18;;;;;;;20.83;9.30;;;;;;;17.58;70.32;102038.47;5074526;28;20112;-72
2022/08/11 06:36:06;;;;;;;22.05;9.40;;;;;;;17.66;69.41;102038.69;5074566;28;20023;-72
2022/08/11 06:38:50;;;;;;;22.25;9.05;;;;;;;17.73;69.02;102039.00;5073066;28;20095;-72
2022/08/11 06:41:43;;;;;;;23.65;9.18;;;;;;;17.80;68.99;102037.50;5074181;28;20049;-72
2022/08/11 06:44:11;;;;;;;19.20;8.05;;;;;;;17.86;67.20;102036.13;5078486;28;20035;-72
2022/08/11 06:46:41;;;;;;;18.33;8.53;;;;;;;17.94;67.14;102041.81;5078302;28;20610;-72
2022/08/11 06:51:10;;;;;;;18.20;7.93;;;;;;;17.99;66.94;102047.69;5077028;28;20286;-72
2022/08/11 06:52:00;;;;;;;21.13;7.35;;;;;;;18.03;64.11;102043.72;5077930;28;20036;-72
2022/08/11 06:54:40;;;;;;;18.50;7.82;;;;;;;18.13;65.54;102043.81;5076501;28;20028;-72
2022/08/11 07:02:45;;;;;;;20.27;7.53;;;;;;;18.28;66.75;102047.03;5078063;28;20071;-72
2022/08/11 07:05:20;;;;;;;17.83;6.88;;;;;;;18.32;64.11;102043.06;5077941;28;20040;-72
2022/08/11 07:16:40;;;;;;;13.18;4.68;;;;;;;18.56;62.82;102041.91;5077635;28;20519;-72
2022/08/11 07:30:31;;;;;;;16.65;6.50;;;;;;;18.90;61.58;102038.91;5077624;28;20179;-72
2022/08/11 07:32:59;;;;;;;17.52;7.47;;;;;;;18.98;59.53;102044.53;5077657;28;20051;-72
2022/08/11 07:35:41;;;;;;;17.98;5.82;;;;;;;19.00;60.33;102042.53;5077168;28;20052;-72
2022/08/11 07:38:15;;;;;;;16.67;5.45;;;;;;;19.03;58.81;102044.97;5076185;28;20029;-72
2022/08/11 07:40:42;;;;;;;15.50;6.22;;;;;;;19.14;59.18;102044.00;5075333;28;20024;-72
2022/08/11 07:43:08;;;;;;;15.32;5.55;;;;;;;19.14;57.65;102042.13;5077454;28;20031;-72
2022/08/11 07:53:55;;;;;;;12.00;4.82;;;;;;;19.41;60.04;102037.03;5076202;28;20070;-72
2022/08/11 07:56:20;;;;;;;12.50;4.82;;;;;;;19.45;57.93;102033.03;5076788;28;20036;-72
2022/08/11 08:18:05;;;;;;;16.58;5.82;;;;;;;20.36;55.64;102041.72;5076145;28;20039;-72
2022/08/11 08:20:35;;;;;;;13.70;5.20;;;;;;;20.39;56.01;102044.16;5076085;28;20032;-72
2022/08/11 08:23:03;;;;;;;16.30;5.65;;;;;;;20.53;55.53;102047.44;5074632;28;20020;-72
2022/08/11 08:25:39;;;;;;;15.13;5.70;;;;;;;20.62;55.12;102037.50;5074635;28;20120;-72
2022/08/11 08:28:09;;;;;;;15.77;5.97;;;;;;;20.62;55.48;102037.50;5075893;28;20021;-72
2022/08/11 08:30:48;;;;;;;13.93;5.30;;;;;;;20.64;56.14;102043.66;5075629;28;20113;-72
2022/08/11 08:33:35;;;;;;;14.27;5.72;;;;;;;20.68;56.95;102048.69;5074858;28;20024;-72
2022/08/11 08:36:15;;;;;;;16.05;5.97;;;;;;;20.76;56.36;102039.72;5075738;28;20048;-72
2022/08/11 08:38:42;;;;;;;13.40;5.25;;;;;;;20.82;56.26;102043.75;5076020;28;20092;-72
2022/08/11 08:41:08;;;;;;;14.82;5.97;;;;;;;20.88;56.19;102040.41;5075704;28;20021;-72
2022/08/11 08:43:36;;;;;;;15.98;5.55;;;;;;;20.99;54.12;102039.34;5074803;28;20493;-72
2022/08/11 08:46:06;;;;;;;15.07;5.43;;;;;;;21.03;54.92;102038.88;5075646;28;20154;-72
2022/08/11 08:48:32;;;;;;;17.40;5.63;;;;;;;21.06;55.30;102040.47;5075484;28;20487;-72
2022/08/11 08:53:50;;;;;;;19.90;6.50;;;;;;;21.29;56.28;102036.28;5075450;28;20074;-72
2022/08/11 08:56:16;;;;;;;15.45;6.07;;;;;;;21.38;54.39;102042.72;5073364;28;20028;-72
2022/08/11 08:58:47;;;;;;;14.77;5.38;;;;;;;21.44;55.59;102041.22;5074632;28;20025;-72
2022/08/11 09:01:15;;;;;;;15.82;6.05;;;;;;;21.60;52.51;102033.22;5073203;28;20031;-72
2022/08/11 09:03:41;;;;;;;14.10;5.43;;;;;;;21.58;54.73;102031.63;5074501;28;20082;-72
2022/08/11 09:06:07;;;;;;;16.50;6.50;;;;;;;21.69;53.46;102030.56;5073761;28;20040;-72
2022/08/11 09:08:34;;;;;;;13.02;5.32;;;;;;;21.57;55.96;102028.06;5074353;28;20036;-72
2022/08/11 09:13:46;;;;;;;13.63;5.15;;;;;;;21.58;55.74;102027.03;5074579;28;20035;-72
2022/08/11 09:16:12;;;;;;;15.20;5.03;;;;;;;21.62;55.64;102030.31;5073291;28;20028;-72
2022/08/11 09:18:40;;;;;;;15.23;5.70;;;;;;;21.67;55.32;102032.56;5074719;28;20430;-72
2022/08/11 09:21:06;;;;;;;14.15;5.10;;;;;;;21.66;56.78;102029.00;5073352;28;20020;-72
2022/08/11 09:29:03;;;;;;;16.52;6.00;;;;;;;21.80;56.19;102022.09;5074546;28;20135;-72
2022/08/11 09:31:32;;;;;;;11.82;4.75;;;;;;;21.88;55.87;102024.91;5073600;28;20485;-72
2022/08/11 09:33:58;;;;;;;13.10;5.20;;;;;;;21.85;55.40;102019.75;5072368;28;20431;-72
2022/08/11 09:41:54;;;;;;;12.70;5.75;;;;;;;22.06;56.23;102015.81;5073876;28;20044;-72
2022/08/11 09:47:11;;;;;;;14.80;5.32;;;;;;;22.22;54.45;102015.91;5073654;28;20384;-72
2022/08/11 09:49:37;;;;;;;13.27;4.93;;;;;;;22.34;53.46;102011.94;5073753;28;20020;-72
2022/08/11 09:52:08;;;;;;;11.73;5.38;;;;;;;22.41;49.24;102012.13;5073452;28;20035;-72
2022/08/11 09:54:33;;;;;;;13.98;5.65;;;;;;;22.55;51.66;101998.84;5072532;28;20255;-72
2022/08/11 09:59:42;;;;;;;13.75;5.45;;;;;;;22.59;52.52;102006.59;5053046;28;20415;-72
2022/08/11 10:02:09;;;;;;;12.98;4.88;;;;;;;22.74;50.25;102001.34;5065235;28;20021;-72
2022/08/11 10:04:41;;;;;;;17.13;5.88;;;;;;;22.78;52.69;102001.84;5053182;28;20098;-72
2022/08/11 10:07:09;;;;;;;10.73;4.90;;;;;;;22.72;51.03;102000.63;5053638;28;20021;-72
2022/08/11 10:09:39;;;;;;;13.40;5.10;;;;;;;22.82;50.87;101998.59;5053172;28;20064;-73
2022/08/11 10:12:08;;;;;;;13.40;5.07;;;;;;;22.81;51.60;101994.19;5053425;28;20025;-73
2022/08/11 10:17:23;;;;;;;12.57;5.72;;;;;;;23.01;47.63;101991.16;5052953;28;20052;-73
2022/08/11 10:19:50;;;;;;;11.15;5.70;;;;;;;22.93;51.40;101986.50;5052835;28;20029;-73
2022/08/11 10:27:53;;;;;;;10.45;5.03;;;;;;;22.98;51.19;101984.09;5053321;28;20467;-73
2022/08/11 10:35:48;;;;;;;14.63;5.28;;;;;;;23.25;50.22;101973.94;5052988;28;20044;-73
2022/08/11 10:38:14;;;;;;;13.23;4.50;;;;;;;23.20;50.42;101984.53;5068085;28;20032;-73
2022/08/11 10:40:45;;;;;;;13.85;5.80;;;;;;;23.27;50.01;101979.25;5052494;28;20021;-73
2022/08/11 10:43:12;;;;;;;12.45;5.22;;;;;;;23.22;49.96;101974.25;5051423;28;20079;-73
2022/08/11 10:48:36;;;;;;;10.43;4.78;;;;;;;23.26;50.04;101972.88;5070316;28;20061;-73
2022/08/11 10:51:12;;;;;;;11.43;4.88;;;;;;;23.35;51.42;101973.75;5072638;28;20105;-73
2022/08/11 10:59:15;;;;;;;11.63;5.38;;;;;;;23.44;49.35;101961.78;5072461;28;20036;-73
2022/08/11 11:01:42;;;;;;;10.88;5.13;;;;;;;23.44;49.73;101964.53;5070713;28;20047;-73
2022/08/11 11:04:27;;;;;;;20.05;5.68;;;;;;;23.56;49.56;101954.91;5072653;28;20024;-73
2022/08/11 11:07:03;;;;;;;13.45;5.43;;;;;;;23.59;50.03;101959.22;5072883;28;20111;-73
2022/08/11 11:09:31;;;;;;;13.25;5.22;;;;;;;23.72;44.24;101954.06;5071174;28;20023;-73
2022/08/11 11:18:21;;;;;;;13.07;5.60;;;;;;;24.30;40.83;101955.84;5072509;28;20478;-73
2022/08/11 11:20:50;;;;;;;13.50;5.18;;;;;;;24.47;44.89;101957.53;5068795;28;20126;-73
2022/08/11 11:23:32;;;;;;;7.93;4.13;;;;;;;24.31;47.58;101955.69;5071965;28;20032;-73
2022/08/11 11:26:09;;;;;;;11.70;4.93;;;;;;;24.24;48.10;101946.44;5070564;28;20020;-73
2022/08/11 11:28:55;;;;;;;12.95;5.20;;;;;;;24.30;46.46;101947.63;5074665;28;20049;-73
2022/08/11 11:31:39;;;;;;;10.25;4.63;;;;;;;24.29;47.27;101946.78;5075125;28;20048;-73
2022/08/11 11:34:35;;;;;;;13.15;5.07;;;;;;;24.36;43.50;101944.16;5075469;28;20040;-73
2022/08/11 11:37:02;;;;;;;13.30;5.13;;;;;;;24.32;45.11;101943.66;5075477;28;20033;-73
2022/08/11 11:39:31;;;;;;;11.27;4.55;;;;;;;24.24;43.58;101946.44;5074086;28;20048;-73
2022/08/11 11:42:00;;;;;;;11.07;5.00;;;;;;;24.52;44.61;101951.47;5074061;28;20020;-73
2022/08/11 11:44:27;;;;;;;13.65;5.80;;;;;;;24.59;43.76;101941.53;5074211;28;20020;-73
2022/08/11 11:46:52;;;;;;;8.80;4.28;;;;;;;24.58;45.46;101942.53;5074036;28;20020;-73
2022/08/11 11:49:22;;;;;;;13.82;5.57;;;;;;;24.71;38.49;101942.81;5075318;28;20115;-73
2022/08/11 11:51:51;;;;;;;11.40;4.82;;;;;;;24.80;40.28;101946.38;5073649;28;20031;-73
2022/08/11 11:54:18;;;;;;;;;;;;;;;24.81;43.74;101930.78;5075596;28;20486;-73
2022/08/11 11:56:44;;;;;;;12.30;4.88;;;;;;;24.89;44.96;101922.44;5075066;28;19992;-73
2022/08/11 12:01:56;;;;;;;12.20;5.47;;;;;;;24.82;44.86;101922.34;5075179;28;20052;-73
2022/08/11 12:04:22;;;;;;;14.15;4.70;;;;;;;24.86;44.16;101920.06;5074768;28;20025;-73
2022/08/11 12:06:48;;;;;;;11.13;4.72;;;;;;;24.77;47.06;101925.63;5074755;28;20025;-73
2022/08/11 12:09:17;;;;;;;13.77;4.88;;;;;;;24.87;46.39;101916.28;5074772;28;20043;-73
2022/08/11 12:14:27;;;;;;;11.85;5.07;;;;;;;25.12;40.22;101912.31;5075005;28;19930;-73
2022/08/11 12:16:54;;;;;;;11.73;4.95;;;;;;;24.94;46.17;101909.88;5074646;28;20392;-73
2022/08/11 12:19:23;;;;;;;13.27;5.35;;;;;;;25.12;38.22;101911.47;5073292;28;20020;-73
2022/08/11 12:27:21;;;;;;;12.85;5.43;;;;;;;25.43;42.11;101905.94;5074713;28;20046;-72
2022/08/11 12:29:58;;;;;;;17.60;5.68;;;;;;;25.54;38.60;101898.28;5074176;28;20029;-72
2022/08/11 12:32:29;;;;;;;10.70;4.57;;;;;;;25.43;43.06;101891.31;5072695;28;20157;-72
2022/08/11 12:34:56;;;;;;;14.13;5.57;;;;;;;25.44;42.87;101885.59;5072793;28;20028;-72
2022/08/11 12:37:35;;;;;;;10.60;5.22;;;;;;;25.51;38.97;101885.72;5072703;28;20119;-72
2022/08/11 12:45:39;;;;;;;11.85;5.22;;;;;;;25.63;41.06;101867.72;5074236;28;20443;-72
2022/08/11 12:53:56;;;;;;;12.15;5.05;;;;;;;25.62;37.61;101871.53;5074390;28;20458;-72
2022/08/11 13:04:58;;;;;;;11.88;5.25;;;;;;;25.70;44.10;101859.56;5073827;28;20157;-72
2022/08/11 13:07:25;;;;;;;13.25;5.32;;;;;;;25.73;41.54;101852.84;5073637;28;20020;-72
2022/08/11 13:09:52;;;;;;;9.38;4.75;;;;;;;25.76;42.14;101856.06;5072014;28;20025;-73
2022/08/11 13:15:03;;;;;;;12.55;4.90;;;;;;;25.80;42.35;101846.38;5073191;28;20035;-73
2022/08/11 13:17:29;;;;;;;11.88;5.00;;;;;;;25.90;38.01;101832.31;5072047;28;20396;-73
2022/08/11 13:19:59;;;;;;;13.95;5.43;;;;;;;25.69;43.64;101841.31;5071724;28;20024;-73
2022/08/11 13:22:25;;;;;;;13.20;4.75;;;;;;;25.60;39.85;101836.97;5071949;28;20021;-73
2022/08/11 13:24:54;;;;;;;12.43;4.97;;;;;;;25.57;37.84;101831.84;5072951;28;20017;-73
2022/08/11 13:27:19;;;;;;;10.55;4.55;;;;;;;25.39;44.69;101832.16;5073255;28;20028;-73
2022/08/11 13:29:46;;;;;;;11.23;4.75;;;;;;;25.61;37.15;101834.03;5072780;28;20404;-73
2022/08/11 13:32:14;;;;;;;12.00;4.93;;;;;;;25.81;41.27;101828.81;5072772;28;20045;-73
2022/08/11 13:34:41;;;;;;;10.85;4.43;;;;;;;25.67;43.89;101828.78;5071485;28;20033;-73
2022/08/11 13:37:11;;;;;;;11.95;5.18;;;;;;;25.71;42.76;101827.38;5072857;28;20485;-73
2022/08/11 13:39:46;;;;;;;10.73;5.00;;;;;;;25.73;41.77;101831.66;5073059;28;20052;-73
2022/08/11 13:42:14;;;;;;;11.45;4.68;;;;;;;25.75;40.81;101826.78;5071433;28;20093;-73
2022/08/11 13:44:40;;;;;;;8.90;4.63;;;;;;;25.60;41.25;101829.53;5072789;28;20020;-73
2022/08/11 13:47:07;;;;;;;12.25;4.68;;;;;;;25.43;46.54;101826.13;5071502;28;20020;-73
2022/08/11 13:49:36;;;;;;;8.50;4.43;;;;;;;25.47;44.38;101819.19;5071181;28;20047;-73
2022/08/11 13:52:03;;;;;;;10.38;4.72;;;;;;;25.68;36.65;101820.34;5070957;28;20078;-73
2022/08/11 13:54:35;;;;;;;10.23;4.28;;;;;;;25.87;34.60;101810.66;5072509;28;20086;-73
2022/08/11 13:57:04;;;;;;;11.45;4.45;;;;;;;25.94;42.71;101816.25;5072358;28;20031;-73
2022/08/11 13:59:30;;;;;;;10.68;4.82;;;;;;;25.93;43.66;101809.03;5072439;28;20495;-73
2022/08/11 14:02:02;;;;;;;7.43;4.53;;;;;;;26.19;35.61;101813.22;5072321;28;20122;-73
2022/08/11 14:04:55;;;;;;;10.20;5.05;;;;;;;26.34;35.83;101809.41;5072639;28;20369;-73
2022/08/11 14:07:23;;;;;;;12.23;4.88;;;;;;;26.43;39.11;101812.00;4993874;28;20049;-73
2022/08/11 14:09:56;;;;;;;10.88;5.07;;;;;;;26.49;34.03;101803.84;5010306;28;20076;-73
2022/08/11 14:15:23;;;;;;;12.48;5.10;;;;;;;26.78;38.77;101803.94;5010573;28;20045;-73
2022/08/11 14:18:00;;;;;;;10.82;5.05;;;;;;;26.73;40.28;101799.00;5010456;28;20049;-73
2022/08/11 14:22:05;;;;;;;13.55;4.80;;;;;;;26.64;41.55;101801.00;5010341;28;20093;-73
2022/08/11 14:23:14;;;;;;;10.05;4.32;;;;;;;26.49;42.87;101800.22;5010419;28;20443;-73
2022/08/11 14:26:22;;;;;;;11.30;4.68;;;;;;;26.44;37.70;101797.19;5010215;28;20034;-72
2022/08/11 14:28:25;;;;;;;13.13;5.40;;;;;;;26.25;43.41;101784.88;5010163;28;20037;-72
2022/08/11 14:30:54;;;;;;;13.73;5.07;;;;;;;26.17;42.87;101783.97;5006858;28;20056;-72
2022/08/11 14:33:19;;;;;;;12.82;5.13;;;;;;;26.06;42.24;101784.44;5010249;28;20512;-72
2022/08/11 14:35:45;;;;;;;18.65;5.57;;;;;;;26.00;44.95;101787.97;5010129;28;20030;-72
2022/08/11 14:38:10;;;;;;;19.55;5.72;;;;;;;26.13;43.17;101790.06;5010133;28;20049;-72
2022/08/11 14:48:49;;;;;;;10.38;5.22;;;;;;;26.47;35.93;101789.41;5052090;28;20044;-72
2022/08/11 14:51:14;;;;;;;12.02;5.10;;;;;;;26.47;40.21;101778.38;5051823;28;20448;-72
2022/08/11 14:53:39;;;;;;;10.52;4.43;;;;;;;26.46;38.45;101779.41;5051836;28;20108;-72
2022/08/11 14:58:49;;;;;;;16.42;5.30;;;;;;;26.44;43.36;101773.22;5052158;28;20404;-72
2022/08/11 15:03:59;;;;;;;10.02;4.57;;;;;;;26.36;37.08;101776.13;5074547;28;20032;-72
2022/08/11 15:06:27;;;;;;;13.18;4.88;;;;;;;26.34;38.26;101768.06;5075862;28;20025;-72
2022/08/11 15:08:53;;;;;;;15.77;5.82;;;;;;;26.43;40.90;101763.28;5075703;28;20021;-73
2022/08/11 15:14:08;;;;;;;14.57;5.40;;;;;;;26.47;38.42;101763.72;5075749;28;20027;-73
2022/08/11 15:19:31;;;;;;;10.10;4.68;;;;;;;26.43;42.74;101765.16;5075741;28;20106;-73
2022/08/11 15:24:40;;;;;;;10.63;5.05;;;;;;;26.58;42.81;101763.22;5075169;28;20027;-73
2022/08/11 15:38:16;;;;;;;11.98;5.25;;;;;;;26.74;40.19;101741.97;5075561;28;20458;-73
2022/08/11 15:46:30;;;;;;;10.07;5.03;;;;;;;26.94;37.22;101739.38;5074957;28;20031;-73
2022/08/11 15:49:02;;;;;;;13.10;5.65;;;;;;;27.00;36.66;101733.91;5075072;28;20059;-73
2022/08/11 15:51:39;;;;;;;11.75;5.35;;;;;;;26.95;41.67;101735.56;5075069;28;20131;-73
2022/08/11 15:54:10;;;;;;;14.00;5.03;;;;;;;26.98;40.47;101741.53;5073814;28;20066;-73
2022/08/11 15:56:40;;;;;;;10.73;4.55;;;;;;;27.06;41.23;101743.31;5074846;28;20021;-73
2022/08/11 16:04:40;;;;;;;8.88;4.50;;;;;;;26.98;41.39;101735.16;5074628;28;20093;-73
2022/08/11 16:07:17;;;;;;;18.27;5.15;;;;;;;27.12;38.60;101733.38;5074645;28;20035;-73
2022/08/11 16:09:47;;;;;;;10.32;4.78;;;;;;;27.14;34.65;101731.25;5074554;28;20021;-73
2022/08/11 16:12:19;;;;;;;11.63;4.82;;;;;;;27.23;35.45;101718.16;5074600;28;20035;-73
2022/08/11 16:17:43;;;;;;;8.65;4.40;;;;;;;27.21;41.07;101719.19;5075009;28;20563;-73
2022/08/11 16:20:12;;;;;;;15.10;5.32;;;;;;;27.25;36.80;101719.66;5073119;28;20017;-73
2022/08/11 16:22:46;;;;;;;10.87;5.13;;;;;;;27.20;42.32;101716.63;5074278;28;20103;-73
2022/08/11 16:25:14;;;;;;;12.32;4.30;;;;;;;27.09;36.53;101720.81;5072960;28;20283;-73